sensor_id;sensor_type;location;lat;lon;timestamp;pressure;altitude;pressure_sealevel;temperature;humidity
41230;BME280;26964;50.428;19.218;2022-07-29T00:00:21;1022.3;;;14.9;55.5
41230;BME280;26964;50.428;19.218;2022-07-29T00:05:20;1022.2;;;14.9;55.6
41230;BME280;26964;50.428;19.218;2022-07-29T00:10:20;1022.2;;;14.9;55.6
41230;BME280;26964;50.428;19.218;2022-07-29T00:15:20;1022.2;;;14.9;55.7
41230;BME280;26964;50.428;19.218;2022-07-29T00:20:20;1022.3;;;15.0;55.7
41230;BME280;26964;50.428;19.218;2022-07-29T00:25:20;1022.3;;;15.0;55.7
41230;BME280;26964;50.428;19.218;2022-07-29T00:30:20;1022.2;;;15.0;55.7
41230;BME280;26964;50.428;19.218;2022-07-29T00:35:20;1022.2;;;15.0;55.7
41230;BME280;26964;50.428;19.218;2022-07-29T00:40:20;1022.2;;;15.1;55.7
41230;BME280;26964;50.428;19.218;2022-07-29T00:45:20;1022.1;;;15.0;55.7
41230;BME280;26964;50.428;19.218;2022-07-29T00:50:20;1022.0;;;15.1;55.8
41230;BME280;26964;50.428;19.218;2022-07-29T00:55:20;1022.1;;;15.0;55.8
41230;BME280;26964;50.428;19.218;2022-07-29T01:00:22;1022.0;;;15.0;55.8
41230;BME280;26964;50.428;19.218;2022-07-29T01:05:22;1021.9;;;15.0;55.8
41230;BME280;26964;50.428;19.218;2022-07-29T01:10:21;1021.8;;;15.1;55.8
41230;BME280;26964;50.428;19.218;2022-07-29T01:15:20;1021.8;;;15.1;55.8
41230;BME280;26964;50.428;19.218;2022-07-29T01:20:26;1021.9;;;15.1;55.8
41230;BME280;26964;50.428;19.218;2022-07-29T01:30:21;1021.8;;;15.3;55.8
41230;BME280;26964;50.428;19.218;2022-07-29T01:35:24;1021.8;;;15.3;55.7
41230;BME280;26964;50.428;19.218;2022-07-29T01:40:34;1021.8;;;15.4;55.7
41230;BME280;26964;50.428;19.218;2022-07-29T01:45:26;1021.7;;;15.4;55.7
41230;BME280;26964;50.428;19.218;2022-07-29T01:50:26;1021.5;;;15.4;55.7
41230;BME280;26964;50.428;19.218;2022-07-29T01:55:22;1021.7;;;15.5;55.7
41230;BME280;26964;50.428;19.218;2022-07-29T02:00:21;1021.7;;;15.5;55.7
41230;BME280;26964;50.428;19.218;2022-07-29T02:05:21;1021.6;;;15.6;55.6
41230;BME280;26964;50.428;19.218;2022-07-29T02:10:23;1021.5;;;15.6;55.6
41230;BME280;26964;50.428;19.218;2022-07-29T02:15:22;1021.5;;;15.6;55.5
41230;BME280;26964;50.428;19.218;2022-07-29T02:20:22;1021.5;;;15.7;55.5
41230;BME280;26964;50.428;19.218;2022-07-29T02:25:21;1021.5;;;15.7;55.4
41230;BME280;26964;50.428;19.218;2022-07-29T02:30:21;1021.5;;;15.8;55.4
41230;BME280;26964;50.428;19.218;2022-07-29T02:35:21;1021.6;;;15.8;55.3
41230;BME280;26964;50.428;19.218;2022-07-29T02:40:20;1021.6;;;15.9;55.3
41230;BME280;26964;50.428;19.218;2022-07-29T02:45:20;1021.5;;;15.9;55.2
41230;BME280;26964;50.428;19.218;2022-07-29T02:50:26;1021.4;;;15.9;55.1
41230;BME280;26964;50.428;19.218;2022-07-29T02:55:25;1021.4;;;15.9;55.0
41230;BME280;26964;50.428;19.218;2022-07-29T03:00:21;1021.4;;;15.9;55.0
41230;BME280;26964;50.428;19.218;2022-07-29T03:05:20;1021.5;;;15.8;55.0
41230;BME280;26964;50.428;19.218;2022-07-29T03:10:21;1021.5;;;15.8;55.0
41230;BME280;26964;50.428;19.218;2022-07-29T03:15:20;1021.6;;;15.8;54.9
41230;BME280;26964;50.428;19.218;2022-07-29T03:20:20;1021.7;;;15.8;54.9
41230;BME280;26964;50.428;19.218;2022-07-29T03:25:20;1021.6;;;15.8;54.9
41230;BME280;26964;50.428;19.218;2022-07-29T03:30:20;1021.4;;;15.7;55.0
41230;BME280;26964;50.428;19.218;2022-07-29T03:35:20;1021.4;;;15.7;54.9
41230;BME280;26964;50.428;19.218;2022-07-29T03:40:22;1021.5;;;15.7;54.9
41230;BME280;26964;50.428;19.218;2022-07-29T03:45:20;1021.5;;;15.7;55.0
41230;BME280;26964;50.428;19.218;2022-07-29T03:50:21;1021.5;;;15.7;55.0
41230;BME280;26964;50.428;19.218;2022-07-29T03:55:20;1021.5;;;15.8;55.0
41230;BME280;26964;50.428;19.218;2022-07-29T04:00:20;1021.4;;;15.9;54.9
41230;BME280;26964;50.428;19.218;2022-07-29T04:05:20;1021.3;;;16.0;54.9
41230;BME280;26964;50.428;19.218;2022-07-29T04:10:20;1021.4;;;16.1;54.8
41230;BME280;26964;50.428;19.218;2022-07-29T04:15:20;1021.4;;;16.3;54.8
41230;BME280;26964;50.428;19.218;2022-07-29T04:20:20;1021.4;;;16.3;54.7
41230;BME280;26964;50.428;19.218;2022-07-29T04:25:20;1021.3;;;16.4;54.7
41230;BME280;26964;50.428;19.218;2022-07-29T04:30:20;1021.3;;;16.5;54.7
41230;BME280;26964;50.428;19.218;2022-07-29T04:35:20;1021.2;;;16.7;54.7
41230;BME280;26964;50.428;19.218;2022-07-29T04:40:20;1021.2;;;16.8;54.6
41230;BME280;26964;50.428;19.218;2022-07-29T04:45:20;1021.1;;;17.0;54.5
41230;BME280;26964;50.428;19.218;2022-07-29T04:50:20;1021.3;;;17.3;54.5
41230;BME280;26964;50.428;19.218;2022-07-29T04:55:20;1021.3;;;17.5;54.3
41230;BME280;26964;50.428;19.218;2022-07-29T05:00:22;1021.3;;;17.6;54.3
41230;BME280;26964;50.428;19.218;2022-07-29T05:05:20;1021.2;;;17.8;54.1
41230;BME280;26964;50.428;19.218;2022-07-29T05:10:20;1021.3;;;18.0;54.0
41230;BME280;26964;50.428;19.218;2022-07-29T05:15:20;1021.3;;;18.1;53.9
41230;BME280;26964;50.428;19.218;2022-07-29T05:20:20;1021.3;;;18.3;53.8
41230;BME280;26964;50.428;19.218;2022-07-29T05:25:20;1021.3;;;18.6;53.7
41230;BME280;26964;50.428;19.218;2022-07-29T05:30:20;1021.3;;;18.8;53.6
41230;BME280;26964;50.428;19.218;2022-07-29T05:35:20;1021.3;;;19.0;53.5
41230;BME280;26964;50.428;19.218;2022-07-29T05:40:20;1021.4;;;19.2;53.3
41230;BME280;26964;50.428;19.218;2022-07-29T05:45:20;1021.4;;;19.4;53.2
41230;BME280;26964;50.428;19.218;2022-07-29T05:50:20;1021.4;;;19.4;53.0
41230;BME280;26964;50.428;19.218;2022-07-29T05:55:20;1021.3;;;19.4;52.5
41230;BME280;26964;50.428;19.218;2022-07-29T06:00:20;1021.3;;;19.4;52.7
41230;BME280;26964;50.428;19.218;2022-07-29T06:05:20;1021.3;;;19.4;52.6
41230;BME280;26964;50.428;19.218;2022-07-29T06:10:20;1021.3;;;19.5;52.6
41230;BME280;26964;50.428;19.218;2022-07-29T06:15:20;1021.2;;;19.7;52.3
41230;BME280;26964;50.428;19.218;2022-07-29T06:20:20;1021.1;;;19.9;52.3
41230;BME280;26964;50.428;19.218;2022-07-29T06:25:20;1021.0;;;20.1;52.0
41230;BME280;26964;50.428;19.218;2022-07-29T06:30:20;1021.1;;;20.3;51.9
41230;BME280;26964;50.428;19.218;2022-07-29T06:35:20;1021.1;;;20.4;51.4
41230;BME280;26964;50.428;19.218;2022-07-29T06:40:20;1021.2;;;20.3;51.6
41230;BME280;26964;50.428;19.218;2022-07-29T06:45:20;1021.2;;;20.3;51.6
41230;BME280;26964;50.428;19.218;2022-07-29T06:50:20;1021.3;;;20.3;51.5
41230;BME280;26964;50.428;19.218;2022-07-29T06:55:20;1021.3;;;20.5;51.6
41230;BME280;26964;50.428;19.218;2022-07-29T07:00:20;1021.2;;;20.8;51.5
41230;BME280;26964;50.428;19.218;2022-07-29T07:05:20;1021.1;;;21.1;51.4
41230;BME280;26964;50.428;19.218;2022-07-29T07:10:20;1021.2;;;21.4;51.3
41230;BME280;26964;50.428;19.218;2022-07-29T07:15:20;1021.3;;;21.7;51.1
41230;BME280;26964;50.428;19.218;2022-07-29T07:20:20;1021.3;;;22.0;50.9
41230;BME280;26964;50.428;19.218;2022-07-29T07:25:20;1021.4;;;22.3;50.7
41230;BME280;26964;50.428;19.218;2022-07-29T07:30:19;1021.3;;;22.5;50.3
41230;BME280;26964;50.428;19.218;2022-07-29T07:35:20;1021.4;;;22.7;50.1
41230;BME280;26964;50.428;19.218;2022-07-29T07:40:20;1021.4;;;22.9;49.5
41230;BME280;26964;50.428;19.218;2022-07-29T07:45:19;1021.3;;;23.0;48.7
41230;BME280;26964;50.428;19.218;2022-07-29T07:50:19;1021.3;;;23.1;48.7
41230;BME280;26964;50.428;19.218;2022-07-29T07:55:20;1021.3;;;23.3;48.2
41230;BME280;26964;50.428;19.218;2022-07-29T08:00:20;1021.4;;;23.3;48.4
41230;BME280;26964;50.428;19.218;2022-07-29T08:05:19;1021.4;;;23.5;48.3
41230;BME280;26964;50.428;19.218;2022-07-29T08:10:20;1021.3;;;23.6;47.8
41230;BME280;26964;50.428;19.218;2022-07-29T08:15:20;1021.2;;;23.8;47.6
41230;BME280;26964;50.428;19.218;2022-07-29T08:20:19;1021.2;;;24.0;47.3
41230;BME280;26964;50.428;19.218;2022-07-29T08:25:20;1021.3;;;24.1;47.3
41230;BME280;26964;50.428;19.218;2022-07-29T08:30:20;1021.3;;;24.2;46.7
41230;BME280;26964;50.428;19.218;2022-07-29T08:35:20;1021.1;;;23.9;46.2
41230;BME280;26964;50.428;19.218;2022-07-29T08:40:20;1021.3;;;23.9;46.4
41230;BME280;26964;50.428;19.218;2022-07-29T08:45:20;1021.3;;;24.0;46.5
41230;BME280;26964;50.428;19.218;2022-07-29T08:50:20;1021.2;;;24.1;45.6
41230;BME280;26964;50.428;19.218;2022-07-29T08:55:20;1021.3;;;24.3;45.7
41230;BME280;26964;50.428;19.218;2022-07-29T09:00:21;1021.2;;;24.5;45.5
41230;BME280;26964;50.428;19.218;2022-07-29T09:05:20;1021.1;;;24.7;44.9
41230;BME280;26964;50.428;19.218;2022-07-29T09:10:19;1021.0;;;24.9;45.2
41230;BME280;26964;50.428;19.218;2022-07-29T09:15:19;1021.1;;;25.1;44.8
41230;BME280;26964;50.428;19.218;2022-07-29T09:20:20;1021.1;;;25.4;44.7
41230;BME280;26964;50.428;19.218;2022-07-29T09:30:19;1021.0;;;25.7;43.4
41230;BME280;26964;50.428;19.218;2022-07-29T09:35:24;1021.0;;;25.9;43.3
41230;BME280;26964;50.428;19.218;2022-07-29T09:40:21;1021.0;;;26.0;43.8
41230;BME280;26964;50.428;19.218;2022-07-29T09:50:20;1020.9;;;26.0;43.3
41230;BME280;26964;50.428;19.218;2022-07-29T09:55:19;1020.8;;;26.3;43.3
41230;BME280;26964;50.428;19.218;2022-07-29T10:00:22;1021.0;;;26.7;43.1
41230;BME280;26964;50.428;19.218;2022-07-29T10:05:21;1020.9;;;27.0;42.6
41230;BME280;26964;50.428;19.218;2022-07-29T10:10:22;1020.7;;;27.0;42.1
41230;BME280;26964;50.428;19.218;2022-07-29T10:15:22;1020.8;;;26.6;41.5
41230;BME280;26964;50.428;19.218;2022-07-29T10:20:20;1020.7;;;26.3;41.9
41230;BME280;26964;50.428;19.218;2022-07-29T10:25:20;1020.6;;;26.2;41.9
41230;BME280;26964;50.428;19.218;2022-07-29T10:30:21;1020.6;;;26.1;42.1
41230;BME280;26964;50.428;19.218;2022-07-29T10:40:26;1020.6;;;26.5;41.7
41230;BME280;26964;50.428;19.218;2022-07-29T10:45:20;1020.4;;;26.8;41.7
41230;BME280;26964;50.428;19.218;2022-07-29T10:50:19;1020.5;;;26.9;41.5
41230;BME280;26964;50.428;19.218;2022-07-29T11:05:20;1020.5;;;26.9;41.5
41230;BME280;26964;50.428;19.218;2022-07-29T11:10:21;1020.4;;;27.0;41.5
41230;BME280;26964;50.428;19.218;2022-07-29T11:15:21;1020.4;;;27.3;41.3
41230;BME280;26964;50.428;19.218;2022-07-29T11:25:20;1020.4;;;27.3;40.8
41230;BME280;26964;50.428;19.218;2022-07-29T11:30:19;1020.4;;;27.1;40.9
41230;BME280;26964;50.428;19.218;2022-07-29T11:35:21;1020.2;;;27.0;40.1
41230;BME280;26964;50.428;19.218;2022-07-29T11:40:19;1020.3;;;26.7;40.4
41230;BME280;26964;50.428;19.218;2022-07-29T11:45:23;1020.2;;;26.6;40.5
41230;BME280;26964;50.428;19.218;2022-07-29T11:55:21;1020.3;;;26.5;41.0
41230;BME280;26964;50.428;19.218;2022-07-29T12:00:22;1020.2;;;26.6;41.2
41230;BME280;26964;50.428;19.218;2022-07-29T12:05:20;1020.2;;;26.7;41.1
41230;BME280;26964;50.428;19.218;2022-07-29T12:10:19;1020.2;;;26.8;40.7
41230;BME280;26964;50.428;19.218;2022-07-29T12:15:20;1020.2;;;26.9;40.7
41230;BME280;26964;50.428;19.218;2022-07-29T12:20:22;1020.2;;;27.0;40.8
41230;BME280;26964;50.428;19.218;2022-07-29T12:25:20;1020.2;;;27.5;41.0
41230;BME280;26964;50.428;19.218;2022-07-29T12:30:19;1020.2;;;27.9;40.7
41230;BME280;26964;50.428;19.218;2022-07-29T12:35:19;1020.2;;;28.0;40.4
41230;BME280;26964;50.428;19.218;2022-07-29T12:40:20;1020.3;;;27.8;40.3
41230;BME280;26964;50.428;19.218;2022-07-29T12:50:20;1020.3;;;27.5;40.4
41230;BME280;26964;50.428;19.218;2022-07-29T13:00:22;1020.2;;;27.3;40.5
41230;BME280;26964;50.428;19.218;2022-07-29T13:05:19;1020.2;;;27.2;40.4
41230;BME280;26964;50.428;19.218;2022-07-29T13:10:21;1020.2;;;27.0;40.5
41230;BME280;26964;50.428;19.218;2022-07-29T13:15:19;1020.2;;;26.8;40.4
41230;BME280;26964;50.428;19.218;2022-07-29T13:20:23;1020.1;;;26.6;40.6
41230;BME280;26964;50.428;19.218;2022-07-29T13:25:23;1020.1;;;26.4;40.7
41230;BME280;26964;50.428;19.218;2022-07-29T13:30:19;1020.1;;;26.3;40.8
41230;BME280;26964;50.428;19.218;2022-07-29T13:35:19;1020.0;;;26.3;41.2
41230;BME280;26964;50.428;19.218;2022-07-29T13:40:22;1019.9;;;26.3;41.2
41230;BME280;26964;50.428;19.218;2022-07-29T13:45:19;1019.7;;;26.2;41.3
41230;BME280;26964;50.428;19.218;2022-07-29T13:50:19;1019.6;;;26.3;41.4
41230;BME280;26964;50.428;19.218;2022-07-29T13:55:19;1019.4;;;26.4;41.4
41230;BME280;26964;50.428;19.218;2022-07-29T14:00:19;1019.4;;;26.3;41.3
41230;BME280;26964;50.428;19.218;2022-07-29T14:05:19;1019.2;;;26.1;41.3
41230;BME280;26964;50.428;19.218;2022-07-29T14:10:20;1019.2;;;26.1;41.7
41230;BME280;26964;50.428;19.218;2022-07-29T14:15:19;1019.1;;;26.2;41.5
41230;BME280;26964;50.428;19.218;2022-07-29T14:20:19;1019.0;;;26.2;41.4
41230;BME280;26964;50.428;19.218;2022-07-29T14:25:19;1019.0;;;26.3;41.8
41230;BME280;26964;50.428;19.218;2022-07-29T14:30:19;1019.0;;;26.7;41.6
41230;BME280;26964;50.428;19.218;2022-07-29T14:35:19;1019.0;;;26.7;41.1
41230;BME280;26964;50.428;19.218;2022-07-29T14:40:19;1019.0;;;26.6;41.4
41230;BME280;26964;50.428;19.218;2022-07-29T14:45:19;1019.1;;;26.5;41.4
41230;BME280;26964;50.428;19.218;2022-07-29T14:50:19;1018.9;;;26.5;41.4
41230;BME280;26964;50.428;19.218;2022-07-29T14:55:19;1019.0;;;26.4;41.6
41230;BME280;26964;50.428;19.218;2022-07-29T15:00:19;1019.0;;;26.4;41.6
41230;BME280;26964;50.428;19.218;2022-07-29T15:05:19;1018.9;;;26.4;41.8
41230;BME280;26964;50.428;19.218;2022-07-29T15:10:19;1018.9;;;26.3;41.7
41230;BME280;26964;50.428;19.218;2022-07-29T15:15:19;1018.9;;;26.2;42.0
41230;BME280;26964;50.428;19.218;2022-07-29T15:20:19;1019.0;;;26.1;42.1
41230;BME280;26964;50.428;19.218;2022-07-29T15:25:19;1018.9;;;26.1;42.3
41230;BME280;26964;50.428;19.218;2022-07-29T15:30:19;1019.0;;;26.1;42.3
41230;BME280;26964;50.428;19.218;2022-07-29T15:35:19;1018.9;;;26.0;42.2
41230;BME280;26964;50.428;19.218;2022-07-29T15:40:19;1019.0;;;25.8;42.4
41230;BME280;26964;50.428;19.218;2022-07-29T15:45:19;1019.0;;;25.8;42.5
41230;BME280;26964;50.428;19.218;2022-07-29T15:50:19;1019.0;;;25.6;42.6
41230;BME280;26964;50.428;19.218;2022-07-29T15:55:19;1018.9;;;25.6;42.7
41230;BME280;26964;50.428;19.218;2022-07-29T16:00:20;1018.9;;;25.4;42.8
41230;BME280;26964;50.428;19.218;2022-07-29T16:05:19;1018.9;;;25.3;42.8
41230;BME280;26964;50.428;19.218;2022-07-29T16:10:19;1018.9;;;25.2;43.2
41230;BME280;26964;50.428;19.218;2022-07-29T16:15:19;1019.0;;;25.1;43.3
41230;BME280;26964;50.428;19.218;2022-07-29T16:20:19;1018.9;;;25.0;43.4
41230;BME280;26964;50.428;19.218;2022-07-29T16:25:20;1018.8;;;24.9;43.5
41230;BME280;26964;50.428;19.218;2022-07-29T16:30:19;1018.9;;;24.8;43.7
41230;BME280;26964;50.428;19.218;2022-07-29T16:35:19;1018.9;;;24.7;43.8
41230;BME280;26964;50.428;19.218;2022-07-29T16:40:19;1018.9;;;24.6;44.0
41230;BME280;26964;50.428;19.218;2022-07-29T16:45:19;1019.0;;;24.5;44.2
41230;BME280;26964;50.428;19.218;2022-07-29T16:50:19;1019.1;;;24.4;44.4
41230;BME280;26964;50.428;19.218;2022-07-29T16:55:19;1019.0;;;24.3;44.6
41230;BME280;26964;50.428;19.218;2022-07-29T17:00:20;1019.1;;;24.1;44.8
41230;BME280;26964;50.428;19.218;2022-07-29T17:05:19;1019.0;;;24.0;45.0
41230;BME280;26964;50.428;19.218;2022-07-29T17:10:19;1019.1;;;23.8;45.2
41230;BME280;26964;50.428;19.218;2022-07-29T17:15:19;1019.7;;;23.7;45.3
41230;BME280;26964;50.428;19.218;2022-07-29T17:20:19;1020.0;;;23.2;47.0
41230;BME280;26964;50.428;19.218;2022-07-29T17:25:19;1019.8;;;22.3;48.3
41230;BME280;26964;50.428;19.218;2022-07-29T17:30:19;1020.0;;;21.8;49.2
41230;BME280;26964;50.428;19.218;2022-07-29T17:35:19;1020.2;;;21.5;50.0
41230;BME280;26964;50.428;19.218;2022-07-29T17:40:19;1020.2;;;21.2;50.8
41230;BME280;26964;50.428;19.218;2022-07-29T17:45:19;1020.1;;;20.9;51.7
41230;BME280;26964;50.428;19.218;2022-07-29T17:50:19;1020.2;;;20.5;52.6
41230;BME280;26964;50.428;19.218;2022-07-29T17:55:19;1020.1;;;20.1;53.8
41230;BME280;26964;50.428;19.218;2022-07-29T18:00:19;1020.0;;;19.8;55.9
41230;BME280;26964;50.428;19.218;2022-07-29T18:05:20;1019.9;;;19.5;56.6
41230;BME280;26964;50.428;19.218;2022-07-29T18:10:20;1019.9;;;19.2;58.3
41230;BME280;26964;50.428;19.218;2022-07-29T18:15:20;1020.0;;;19.0;59.0
41230;BME280;26964;50.428;19.218;2022-07-29T18:20:19;1019.8;;;18.8;59.3
41230;BME280;26964;50.428;19.218;2022-07-29T18:30:19;1019.7;;;18.6;60.9
41230;BME280;26964;50.428;19.218;2022-07-29T18:35:19;1019.7;;;18.5;61.6
41230;BME280;26964;50.428;19.218;2022-07-29T18:40:19;1019.6;;;18.4;61.7
41230;BME280;26964;50.428;19.218;2022-07-29T18:45:19;1019.5;;;18.3;62.8
41230;BME280;26964;50.428;19.218;2022-07-29T18:50:21;1019.5;;;18.2;63.3
41230;BME280;26964;50.428;19.218;2022-07-29T18:55:19;1019.5;;;18.1;63.0
41230;BME280;26964;50.428;19.218;2022-07-29T19:00:19;1019.3;;;18.1;63.8
41230;BME280;26964;50.428;19.218;2022-07-29T19:05:20;1019.3;;;18.0;64.6
41230;BME280;26964;50.428;19.218;2022-07-29T19:10:19;1019.4;;;18.0;64.7
41230;BME280;26964;50.428;19.218;2022-07-29T19:15:19;1019.5;;;17.9;64.8
41230;BME280;26964;50.428;19.218;2022-07-29T19:20:19;1019.5;;;17.9;64.7
41230;BME280;26964;50.428;19.218;2022-07-29T19:25:18;1019.6;;;17.9;64.9
41230;BME280;26964;50.428;19.218;2022-07-29T19:30:20;1019.6;;;17.9;65.1
41230;BME280;26964;50.428;19.218;2022-07-29T19:35:19;1019.6;;;17.9;65.1
41230;BME280;26964;50.428;19.218;2022-07-29T19:40:19;1019.7;;;18.0;65.2
41230;BME280;26964;50.428;19.218;2022-07-29T19:45:20;1019.6;;;18.0;65.3
41230;BME280;26964;50.428;19.218;2022-07-29T19:50:19;1019.6;;;18.1;65.5
41230;BME280;26964;50.428;19.218;2022-07-29T19:55:19;1019.6;;;18.1;65.6
41230;BME280;26964;50.428;19.218;2022-07-29T20:00:19;1019.6;;;18.2;65.7
41230;BME280;26964;50.428;19.218;2022-07-29T20:05:18;1019.7;;;18.2;65.8
41230;BME280;26964;50.428;19.218;2022-07-29T20:10:18;1019.7;;;18.3;65.9
41230;BME280;26964;50.428;19.218;2022-07-29T20:15:19;1019.7;;;18.3;65.9
41230;BME280;26964;50.428;19.218;2022-07-29T20:20:18;1019.7;;;18.4;66.0
41230;BME280;26964;50.428;19.218;2022-07-29T20:25:20;1019.7;;;18.4;66.1
41230;BME280;26964;50.428;19.218;2022-07-29T20:30:19;1019.7;;;18.4;66.1
41230;BME280;26964;50.428;19.218;2022-07-29T20:35:18;1019.7;;;18.4;66.2
41230;BME280;26964;50.428;19.218;2022-07-29T20:40:18;1019.6;;;18.4;66.3
41230;BME280;26964;50.428;19.218;2022-07-29T20:45:18;1019.5;;;18.4;66.4
41230;BME280;26964;50.428;19.218;2022-07-29T20:50:19;1019.5;;;18.3;66.7
41230;BME280;26964;50.428;19.218;2022-07-29T20:55:18;1019.5;;;18.3;66.8
41230;BME280;26964;50.428;19.218;2022-07-29T21:00:18;1019.4;;;18.2;66.9
41230;BME280;26964;50.428;19.218;2022-07-29T21:05:18;1019.3;;;18.2;67.1
41230;BME280;26964;50.428;19.218;2022-07-29T21:10:19;1019.3;;;18.2;67.2
41230;BME280;26964;50.428;19.218;2022-07-29T21:15:18;1019.3;;;18.2;67.3
41230;BME280;26964;50.428;19.218;2022-07-29T21:20:19;1019.1;;;18.2;67.4
41230;BME280;26964;50.428;19.218;2022-07-29T21:25:18;1019.2;;;18.2;67.5
41230;BME280;26964;50.428;19.218;2022-07-29T21:30:19;1019.0;;;18.2;67.6
41230;BME280;26964;50.428;19.218;2022-07-29T21:35:18;1018.9;;;18.3;67.7
41230;BME280;26964;50.428;19.218;2022-07-29T21:40:19;1018.8;;;18.2;67.7
41230;BME280;26964;50.428;19.218;2022-07-29T21:45:18;1018.9;;;18.2;67.9
41230;BME280;26964;50.428;19.218;2022-07-29T21:50:19;1019.0;;;18.2;68.0
41230;BME280;26964;50.428;19.218;2022-07-29T21:55:18;1019.0;;;18.1;68.1
41230;BME280;26964;50.428;19.218;2022-07-29T22:00:19;1019.0;;;18.1;68.2
41230;BME280;26964;50.428;19.218;2022-07-29T22:05:18;1019.1;;;18.1;68.4
41230;BME280;26964;50.428;19.218;2022-07-29T22:10:18;1019.1;;;18.1;68.5
41230;BME280;26964;50.428;19.218;2022-07-29T22:15:19;1019.0;;;18.1;68.6
41230;BME280;26964;50.428;19.218;2022-07-29T22:20:19;1018.9;;;18.1;68.6
41230;BME280;26964;50.428;19.218;2022-07-29T22:25:19;1018.9;;;18.2;68.5
41230;BME280;26964;50.428;19.218;2022-07-29T22:30:18;1018.9;;;18.2;68.6
41230;BME280;26964;50.428;19.218;2022-07-29T22:35:18;1018.8;;;18.2;68.7
41230;BME280;26964;50.428;19.218;2022-07-29T22:40:18;1018.7;;;18.1;68.9
41230;BME280;26964;50.428;19.218;2022-07-29T22:45:18;1018.7;;;18.1;68.9
41230;BME280;26964;50.428;19.218;2022-07-29T22:50:18;1018.6;;;18.1;69.0
41230;BME280;26964;50.428;19.218;2022-07-29T22:55:18;1018.6;;;18.1;69.0
41230;BME280;26964;50.428;19.218;2022-07-29T23:00:18;1018.6;;;18.1;69.1
41230;BME280;26964;50.428;19.218;2022-07-29T23:05:19;1018.6;;;18.1;69.1
41230;BME280;26964;50.428;19.218;2022-07-29T23:10:18;1018.6;;;18.1;69.1
41230;BME280;26964;50.428;19.218;2022-07-29T23:15:18;1018.4;;;18.1;69.2
41230;BME280;26964;50.428;19.218;2022-07-29T23:20:18;1018.4;;;18.1;69.2
41230;BME280;26964;50.428;19.218;2022-07-29T23:25:18;1018.2;;;18.2;69.2
41230;BME280;26964;50.428;19.218;2022-07-29T23:30:18;1018.1;;;18.2;69.3
41230;BME280;26964;50.428;19.218;2022-07-29T23:35:20;1017.9;;;18.2;69.4
41230;BME280;26964;50.428;19.218;2022-07-29T23:40:18;1018.0;;;18.2;69.4
41230;BME280;26964;50.428;19.218;2022-07-29T23:45:18;1017.8;;;18.2;69.4
41230;BME280;26964;50.428;19.218;2022-07-29T23:50:18;1017.7;;;18.1;69.5
41230;BME280;26964;50.428;19.218;2022-07-29T23:55:18;1017.8;;;18.1;69.5
